Arnett, Oklahoma
Current Conditions -  °F | °C
As of 3:53 PM on Monday 20 Oct 2014 (Local Time) from KGAG Reporting Station
Clear Clear  
Wind Chill: 79°   Ceiling: Unl
Heat Index: 80°   Visibility: 10mi
Dew Point: 56°   Wind: 10mph
Humidity: 45%   Direction: 50°NE
Pressure: 30.03"   Gusts: NA
Location:  36.14°N, 99.77°W
Report Text: KGAG 202053Z AUTO 05009KT 10SM CLR 26/13 A3003 RMK AO2 SLP149 T02610133 56015
Loading
Personal Weather Stations






























Interactive Weather Map
Tropical Storm Tracking
New forecast layout! Learn more

10-Day Weather Forecast

Advertisements
Track Severe Weather on mobile